sensor_id;sensor_type;location;lat;lon;timestamp;pressure;altitude;pressure_sealevel;temperature;humidity
10732;BME280;5417;42.686;23.244;2023-09-30T00:00:46;94700.75;;;17.97;55.88
10732;BME280;5417;42.686;23.244;2023-09-30T00:05:44;94706.03;;;17.97;56.04
10732;BME280;5417;42.686;23.244;2023-09-30T00:06:38;94706.84;;;17.97;56.30
10732;BME280;5417;42.686;23.244;2023-09-30T00:09:47;94705.84;;;17.98;56.42
10732;BME280;5417;42.686;23.244;2023-09-30T00:12:25;94697.78;;;18.00;56.47
10732;BME280;5417;42.686;23.244;2023-09-30T00:15:15;94696.66;;;18.03;56.28
10732;BME280;5417;42.686;23.244;2023-09-30T00:18:08;94699.78;;;18.06;56.46
10732;BME280;5417;42.686;23.244;2023-09-30T00:20:57;94704.88;;;18.08;56.29
10732;BME280;5417;42.686;23.244;2023-09-30T00:23:37;94703.91;;;18.09;56.51
10732;BME280;5417;42.686;23.244;2023-09-30T00:26:09;94701.91;;;18.11;56.38
10732;BME280;5417;42.686;23.244;2023-09-30T00:29:00;94697.31;;;18.13;56.40
10732;BME280;5417;42.686;23.244;2023-09-30T00:31:53;94700.59;;;18.15;56.45
10732;BME280;5417;42.686;23.244;2023-09-30T00:34:59;94694.19;;;18.17;56.64
10732;BME280;5417;42.686;23.244;2023-09-30T00:37:55;94693.19;;;18.18;56.41
10732;BME280;5417;42.686;23.244;2023-09-30T00:40:47;94685.13;;;18.20;56.59
10732;BME280;5417;42.686;23.244;2023-09-30T00:43:19;94691.09;;;18.22;56.42
10732;BME280;5417;42.686;23.244;2023-09-30T00:45:56;94690.41;;;18.20;56.62
10732;BME280;5417;42.686;23.244;2023-09-30T00:48:43;94696.84;;;18.25;57.15
10732;BME280;5417;42.686;23.244;2023-09-30T00:51:51;94692.25;;;18.27;57.45
10732;BME280;5417;42.686;23.244;2023-09-30T00:54:26;94696.69;;;18.27;57.01
10732;BME280;5417;42.686;23.244;2023-09-30T00:56:55;94701.13;;;18.26;56.85
10732;BME280;5417;42.686;23.244;2023-09-30T00:59:57;94688.78;;;18.27;56.79
10732;BME280;5417;42.686;23.244;2023-09-30T01:02:30;94684.34;;;18.27;56.76
10732;BME280;5417;42.686;23.244;2023-09-30T01:05:27;94689.44;;;18.29;57.06
10732;BME280;5417;42.686;23.244;2023-09-30T01:07:55;94687.63;;;18.29;57.39
10732;BME280;5417;42.686;23.244;2023-09-30T01:10:29;94687.47;;;18.31;57.43
10732;BME280;5417;42.686;23.244;2023-09-30T01:13:19;94678.72;;;18.31;56.92
10732;BME280;5417;42.686;23.244;2023-09-30T01:15:46;94681.38;;;18.31;56.38
10732;BME280;5417;42.686;23.244;2023-09-30T01:18:15;94675.44;;;18.28;56.46
10732;BME280;5417;42.686;23.244;2023-09-30T01:21:02;94680.53;;;18.30;56.16
10732;BME280;5417;42.686;23.244;2023-09-30T01:23:37;94679.88;;;18.28;56.38
10732;BME280;5417;42.686;23.244;2023-09-30T01:26:10;94677.25;;;18.28;56.04
10732;BME280;5417;42.686;23.244;2023-09-30T01:29:01;94679.88;;;18.28;55.78
10732;BME280;5417;42.686;23.244;2023-09-30T01:31:58;94683.50;;;18.27;55.87
10732;BME280;5417;42.686;23.244;2023-09-30T01:34:54;94675.78;;;18.25;55.54
10732;BME280;5417;42.686;23.244;2023-09-30T01:40:59;94677.75;;;18.23;56.05
10732;BME280;5417;42.686;23.244;2023-09-30T01:43:26;94680.53;;;18.22;56.11
10732;BME280;5417;42.686;23.244;2023-09-30T01:48:30;94677.59;;;18.25;56.05
10732;BME280;5417;42.686;23.244;2023-09-30T01:57:22;94671.66;;;18.23;56.25
10732;BME280;5417;42.686;23.244;2023-09-30T02:00:12;94675.13;;;18.23;56.59
10732;BME280;5417;42.686;23.244;2023-09-30T02:02:39;94680.22;;;18.25;56.20
10732;BME280;5417;42.686;23.244;2023-09-30T02:05:08;94676.91;;;18.23;56.33
10732;BME280;5417;42.686;23.244;2023-09-30T02:07:37;94672.13;;;18.18;55.83
10732;BME280;5417;42.686;23.244;2023-09-30T02:10:12;94672.78;;;18.20;55.63
10732;BME280;5417;42.686;23.244;2023-09-30T02:13:02;94672.13;;;18.18;55.68
10732;BME280;5417;42.686;23.244;2023-09-30T02:15:31;94663.72;;;18.15;55.47
10732;BME280;5417;42.686;23.244;2023-09-30T02:18:06;94668.50;;;18.11;55.65
10732;BME280;5417;42.686;23.244;2023-09-30T02:21:25;94667.66;;;18.11;55.86
10732;BME280;5417;42.686;23.244;2023-09-30T02:23:52;94671.47;;;18.08;55.93
10732;BME280;5417;42.686;23.244;2023-09-30T02:26:27;94673.94;;;18.02;55.99
10732;BME280;5417;42.686;23.244;2023-09-30T02:29:24;94670.97;;;17.96;55.92
10732;BME280;5417;42.686;23.244;2023-09-30T02:32:02;94681.00;;;17.93;55.99
10732;BME280;5417;42.686;23.244;2023-09-30T02:35:21;94675.25;;;17.97;55.70
10732;BME280;5417;42.686;23.244;2023-09-30T02:37:50;94680.16;;;17.92;55.77
10732;BME280;5417;42.686;23.244;2023-09-30T02:40:29;94678.84;;;17.88;56.12
10732;BME280;5417;42.686;23.244;2023-09-30T02:43:12;94671.44;;;17.84;56.59
10732;BME280;5417;42.686;23.244;2023-09-30T02:45:40;94678.03;;;17.80;56.87
10732;BME280;5417;42.686;23.244;2023-09-30T02:48:37;94678.66;;;17.74;56.57
10732;BME280;5417;42.686;23.244;2023-09-30T02:51:03;94671.59;;;17.74;56.52
10732;BME280;5417;42.686;23.244;2023-09-30T02:53:31;94671.91;;;17.71;57.30
10732;BME280;5417;42.686;23.244;2023-09-30T02:59:13;94666.06;;;17.59;57.57
10732;BME280;5417;42.686;23.244;2023-09-30T03:01:58;94676.75;;;17.58;58.28
10732;BME280;5417;42.686;23.244;2023-09-30T03:04:25;94669.50;;;17.52;57.91
10732;BME280;5417;42.686;23.244;2023-09-30T03:06:54;94675.09;;;17.49;57.91
10732;BME280;5417;42.686;23.244;2023-09-30T03:09:26;94677.53;;;17.42;58.58
10732;BME280;5417;42.686;23.244;2023-09-30T03:11:59;94681.00;;;17.43;58.51
10732;BME280;5417;42.686;23.244;2023-09-30T03:14:55;94679.00;;;17.37;58.17
10732;BME280;5417;42.686;23.244;2023-09-30T03:20:39;94675.03;;;17.24;58.26
10732;BME280;5417;42.686;23.244;2023-09-30T03:23:26;94676.00;;;17.23;58.82
10732;BME280;5417;42.686;23.244;2023-09-30T03:25:56;94673.69;;;17.20;58.50
10732;BME280;5417;42.686;23.244;2023-09-30T03:28:25;94668.75;;;17.17;58.51
10732;BME280;5417;42.686;23.244;2023-09-30T03:30:58;94678.41;;;17.17;58.94
10732;BME280;5417;42.686;23.244;2023-09-30T03:33:59;94673.47;;;17.14;58.58
10732;BME280;5417;42.686;23.244;2023-09-30T03:39:24;94676.41;;;17.11;59.00
10732;BME280;5417;42.686;23.244;2023-09-30T03:41:59;94674.75;;;17.10;58.89
10732;BME280;5417;42.686;23.244;2023-09-30T03:44:26;94668.84;;;17.08;58.70
10732;BME280;5417;42.686;23.244;2023-09-30T03:46:59;94662.09;;;17.05;58.81
10732;BME280;5417;42.686;23.244;2023-09-30T03:49:48;94668.00;;;17.07;59.27
10732;BME280;5417;42.686;23.244;2023-09-30T03:52:15;94657.81;;;17.04;58.83
10732;BME280;5417;42.686;23.244;2023-09-30T03:54:45;94657.81;;;17.04;58.77
10732;BME280;5417;42.686;23.244;2023-09-30T03:57:17;94667.84;;;17.09;58.81
10732;BME280;5417;42.686;23.244;2023-09-30T03:59:57;94661.63;;;17.10;58.10
10732;BME280;5417;42.686;23.244;2023-09-30T04:02:24;94658.63;;;17.04;58.30
10732;BME280;5417;42.686;23.244;2023-09-30T04:04:52;94668.84;;;17.08;57.59
10732;BME280;5417;42.686;23.244;2023-09-30T04:07:31;94659.63;;;17.03;57.96
10732;BME280;5417;42.686;23.244;2023-09-30T04:10:21;94668.50;;;17.02;57.82
10732;BME280;5417;42.686;23.244;2023-09-30T04:12:49;94671.28;;;17.01;57.98
10732;BME280;5417;42.686;23.244;2023-09-30T04:15:21;94664.38;;;17.00;57.42
10732;BME280;5417;42.686;23.244;2023-09-30T04:17:48;94672.94;;;17.02;57.91
10732;BME280;5417;42.686;23.244;2023-09-30T04:20:18;94678.66;;;16.97;57.72
10732;BME280;5417;42.686;23.244;2023-09-30T04:22:50;94683.91;;;16.97;57.90
10732;BME280;5417;42.686;23.244;2023-09-30T04:25:23;94680.31;;;16.98;58.29
10732;BME280;5417;42.686;23.244;2023-09-30T04:27:58;94688.53;;;17.03;58.63
10732;BME280;5417;42.686;23.244;2023-09-30T04:30:26;94691.69;;;17.07;59.05
10732;BME280;5417;42.686;23.244;2023-09-30T04:32:53;94689.09;;;17.15;59.56
10732;BME280;5417;42.686;23.244;2023-09-30T04:35:21;94688.53;;;17.29;58.93
10732;BME280;5417;42.686;23.244;2023-09-30T04:37:48;94696.13;;;17.41;58.42
10732;BME280;5417;42.686;23.244;2023-09-30T04:40:15;94691.06;;;17.55;58.30
10732;BME280;5417;42.686;23.244;2023-09-30T04:42:43;94692.50;;;17.84;57.56
10732;BME280;5417;42.686;23.244;2023-09-30T04:45:14;94699.78;;;18.14;56.88
10732;BME280;5417;42.686;23.244;2023-09-30T04:47:45;94702.78;;;18.52;55.55
10732;BME280;5417;42.686;23.244;2023-09-30T04:50:18;94699.97;;;18.86;54.87
10732;BME280;5417;42.686;23.244;2023-09-30T04:52:48;94695.09;;;19.22;53.08
10732;BME280;5417;42.686;23.244;2023-09-30T04:55:15;94701.06;;;19.63;51.99
10732;BME280;5417;42.686;23.244;2023-09-30T04:57:44;94705.91;;;19.91;50.82
10732;BME280;5417;42.686;23.244;2023-09-30T05:00:12;94706.13;;;20.04;50.29
10732;BME280;5417;42.686;23.244;2023-09-30T05:02:42;94707.78;;;20.28;49.35
10732;BME280;5417;42.686;23.244;2023-09-30T05:05:10;94703.69;;;20.71;48.39
10732;BME280;5417;42.686;23.244;2023-09-30T05:07:43;94698.03;;;21.26;48.39
10732;BME280;5417;42.686;23.244;2023-09-30T05:10:13;94703.19;;;21.79;47.04
10732;BME280;5417;42.686;23.244;2023-09-30T05:12:42;94703.44;;;22.34;45.41
10732;BME280;5417;42.686;23.244;2023-09-30T05:15:11;94705.78;;;22.87;44.65
10732;BME280;5417;42.686;23.244;2023-09-30T05:17:45;94696.78;;;23.44;42.64
10732;BME280;5417;42.686;23.244;2023-09-30T05:20:13;94702.00;;;24.06;42.28
10732;BME280;5417;42.686;23.244;2023-09-30T05:22:46;94691.78;;;24.10;41.35
10732;BME280;5417;42.686;23.244;2023-09-30T05:25:16;94697.72;;;24.12;41.07
10732;BME280;5417;42.686;23.244;2023-09-30T05:27:49;94700.72;;;24.57;40.80
10732;BME280;5417;42.686;23.244;2023-09-30T05:30:23;94697.66;;;25.12;39.19
10732;BME280;5417;42.686;23.244;2023-09-30T05:33:17;94694.88;;;25.78;38.37
10732;BME280;5417;42.686;23.244;2023-09-30T05:36:12;94698.50;;;26.42;37.23
10732;BME280;5417;42.686;23.244;2023-09-30T05:41:24;94698.03;;;27.33;35.88
10732;BME280;5417;42.686;23.244;2023-09-30T05:43:53;94706.41;;;27.61;34.61
10732;BME280;5417;42.686;23.244;2023-09-30T05:46:20;94699.06;;;27.75;34.96
10732;BME280;5417;42.686;23.244;2023-09-30T05:48:47;94706.16;;;28.00;34.85
10732;BME280;5417;42.686;23.244;2023-09-30T05:51:14;94710.00;;;27.74;34.90
10732;BME280;5417;42.686;23.244;2023-09-30T05:53:41;94705.78;;;27.59;34.63
10732;BME280;5417;42.686;23.244;2023-09-30T05:56:08;94706.41;;;27.80;35.27
10732;BME280;5417;42.686;23.244;2023-09-30T05:58:39;94705.94;;;28.01;34.54
10732;BME280;5417;42.686;23.244;2023-09-30T06:01:09;94707.94;;;28.06;34.76
10732;BME280;5417;42.686;23.244;2023-09-30T06:04:09;94708.47;;;28.33;34.53
10732;BME280;5417;42.686;23.244;2023-09-30T06:06:36;94716.56;;;28.08;34.49
10732;BME280;5417;42.686;23.244;2023-09-30T06:09:06;94707.88;;;27.94;34.40
10732;BME280;5417;42.686;23.244;2023-09-30T06:11:35;94713.84;;;27.78;35.77
10732;BME280;5417;42.686;23.244;2023-09-30T06:14:04;94710.94;;;27.61;35.40
10732;BME280;5417;42.686;23.244;2023-09-30T06:17:09;94716.31;;;27.79;35.93
10732;BME280;5417;42.686;23.244;2023-09-30T06:19:38;94726.84;;;27.74;35.14
10732;BME280;5417;42.686;23.244;2023-09-30T06:22:05;94727.34;;;27.21;35.84
10732;BME280;5417;42.686;23.244;2023-09-30T06:24:48;94730.66;;;26.85;37.38
10732;BME280;5417;42.686;23.244;2023-09-30T06:30:11;94735.00;;;26.55;37.90
10732;BME280;5417;42.686;23.244;2023-09-30T06:33:04;94736.75;;;26.67;37.76
10732;BME280;5417;42.686;23.244;2023-09-30T06:35:32;94729.03;;;26.84;37.15
10732;BME280;5417;42.686;23.244;2023-09-30T06:38:04;94729.03;;;26.84;36.51
10732;BME280;5417;42.686;23.244;2023-09-30T06:41:08;94737.47;;;26.81;36.56
10732;BME280;5417;42.686;23.244;2023-09-30T06:44:33;94738.19;;;26.70;37.36
10732;BME280;5417;42.686;23.244;2023-09-30T06:46:52;94739.13;;;26.44;36.92
10732;BME280;5417;42.686;23.244;2023-09-30T06:49:41;94736.47;;;26.44;36.84
10732;BME280;5417;42.686;23.244;2023-09-30T06:58:56;94757.09;;;25.00;36.90
10732;BME280;5417;42.686;23.244;2023-09-30T07:01:36;94753.75;;;24.65;37.25
10732;BME280;5417;42.686;23.244;2023-09-30T07:14:06;94765.47;;;23.47;40.40
10732;BME280;5417;42.686;23.244;2023-09-30T07:22:55;94757.69;;;23.17;40.91
10732;BME280;5417;42.686;23.244;2023-09-30T07:28:09;94762.28;;;23.30;40.83
10732;BME280;5417;42.686;23.244;2023-09-30T07:36:54;94761.66;;;23.56;38.41
10732;BME280;5417;42.686;23.244;2023-09-30T07:49:00;94758.47;;;24.69;36.82
10732;BME280;5417;42.686;23.244;2023-09-30T07:51:30;94766.03;;;24.66;36.83
10732;BME280;5417;42.686;23.244;2023-09-30T07:59:21;94769.81;;;24.98;36.42
10732;BME280;5417;42.686;23.244;2023-09-30T08:05:00;94763.88;;;25.02;36.88
10732;BME280;5417;42.686;23.244;2023-09-30T08:07:27;94766.94;;;25.19;35.75
10732;BME280;5417;42.686;23.244;2023-09-30T08:24:06;94757.34;;;26.09;34.13
10732;BME280;5417;42.686;23.244;2023-09-30T08:55:33;94751.81;;;26.10;30.13
10732;BME280;5417;42.686;23.244;2023-09-30T08:58:00;94748.13;;;26.05;31.08
10732;BME280;5417;42.686;23.244;2023-09-30T09:00:53;94742.38;;;26.08;32.07
10732;BME280;5417;42.686;23.244;2023-09-30T09:04:11;94738.78;;;26.34;31.73
10732;BME280;5417;42.686;23.244;2023-09-30T09:07:06;94739.06;;;26.13;30.19
10732;BME280;5417;42.686;23.244;2023-09-30T09:09:26;94741.78;;;25.93;30.36
10732;BME280;5417;42.686;23.244;2023-09-30T09:21:21;94731.84;;;26.20;29.79
10732;BME280;5417;42.686;23.244;2023-09-30T09:56:42;94713.91;;;25.89;30.21
10732;BME280;5417;42.686;23.244;2023-09-30T10:09:40;94703.34;;;26.14;30.01
10732;BME280;5417;42.686;23.244;2023-09-30T10:12:13;94699.31;;;26.04;29.65
10732;BME280;5417;42.686;23.244;2023-09-30T10:14:41;94701.00;;;25.86;30.11
10732;BME280;5417;42.686;23.244;2023-09-30T10:20:44;94681.59;;;26.17;29.20
10732;BME280;5417;42.686;23.244;2023-09-30T10:24:17;94693.81;;;26.37;29.88
10732;BME280;5417;42.686;23.244;2023-09-30T10:55:20;94662.00;;;26.29;27.50
10732;BME280;5417;42.686;23.244;2023-09-30T11:11:05;94638.47;;;26.20;27.59
10732;BME280;5417;42.686;23.244;2023-09-30T11:20:11;94635.69;;;26.01;27.83
10732;BME280;5417;42.686;23.244;2023-09-30T11:26:12;94642.66;;;25.51;28.07
10732;BME280;5417;42.686;23.244;2023-09-30T11:28:41;94635.47;;;25.52;28.51
10732;BME280;5417;42.686;23.244;2023-09-30T11:32:02;94635.25;;;25.60;28.49
10732;BME280;5417;42.686;23.244;2023-09-30T11:35:08;94632.97;;;25.63;28.33
10732;BME280;5417;42.686;23.244;2023-09-30T11:37:35;94640.56;;;25.60;28.67
10732;BME280;5417;42.686;23.244;2023-09-30T11:43:36;94624.22;;;25.50;28.60
10732;BME280;5417;42.686;23.244;2023-09-30T11:46:05;94627.47;;;25.45;28.88
10732;BME280;5417;42.686;23.244;2023-09-30T11:55:17;94625.28;;;25.29;28.90
10732;BME280;5417;42.686;23.244;2023-09-30T11:57:50;94618.78;;;25.11;29.81
10732;BME280;5417;42.686;23.244;2023-09-30T12:00:32;94613.00;;;25.21;29.77
10732;BME280;5417;42.686;23.244;2023-09-30T12:09:00;94597.81;;;25.28;29.97
10732;BME280;5417;42.686;23.244;2023-09-30T12:11:41;94601.22;;;25.48;29.75
10732;BME280;5417;42.686;23.244;2023-09-30T12:15:04;94592.66;;;25.40;28.83
10732;BME280;5417;42.686;23.244;2023-09-30T12:17:25;94587.41;;;25.13;29.56
10732;BME280;5417;42.686;23.244;2023-09-30T12:19:52;94592.53;;;25.15;29.47
10732;BME280;5417;42.686;23.244;2023-09-30T12:23:13;94583.91;;;25.20;29.80
10732;BME280;5417;42.686;23.244;2023-09-30T12:29:28;94581.50;;;25.05;29.35
10732;BME280;5417;42.686;23.244;2023-09-30T12:33:21;94583.75;;;24.88;29.58
10732;BME280;5417;42.686;23.244;2023-09-30T12:35:22;94567.38;;;25.04;29.57
10732;BME280;5417;42.686;23.244;2023-09-30T12:37:51;94575.97;;;25.06;29.78
10732;BME280;5417;42.686;23.244;2023-09-30T12:40:20;94578.59;;;24.93;29.55
10732;BME280;5417;42.686;23.244;2023-09-30T13:13:19;94558.16;;;24.87;28.86
10732;BME280;5417;42.686;23.244;2023-09-30T13:15:46;94546.91;;;24.72;29.15
10732;BME280;5417;42.686;23.244;2023-09-30T13:18:13;94558.19;;;24.74;29.71
10732;BME280;5417;42.686;23.244;2023-09-30T13:21:03;94545.06;;;24.79;29.69
10732;BME280;5417;42.686;23.244;2023-09-30T13:23:52;94544.22;;;24.85;30.06
10732;BME280;5417;42.686;23.244;2023-09-30T13:26:19;94542.19;;;24.74;29.75
10732;BME280;5417;42.686;23.244;2023-09-30T13:28:49;94542.00;;;24.75;29.73
10732;BME280;5417;42.686;23.244;2023-09-30T13:53:32;94526.47;;;24.19;31.01
10732;BME280;5417;42.686;23.244;2023-09-30T13:55:59;94528.09;;;24.14;31.13
10732;BME280;5417;42.686;23.244;2023-09-30T13:58:26;94525.44;;;24.14;30.78
10732;BME280;5417;42.686;23.244;2023-09-30T14:01:17;94524.41;;;24.15;30.50
10732;BME280;5417;42.686;23.244;2023-09-30T14:03:47;94535.06;;;24.08;31.18
10732;BME280;5417;42.686;23.244;2023-09-30T14:13:21;94524.84;;;23.99;31.61
10732;BME280;5417;42.686;23.244;2023-09-30T14:19:17;94524.03;;;23.98;31.76
10732;BME280;5417;42.686;23.244;2023-09-30T14:21:45;94522.59;;;23.96;31.25
10732;BME280;5417;42.686;23.244;2023-09-30T14:24:12;94522.78;;;23.94;31.56
10732;BME280;5417;42.686;23.244;2023-09-30T14:26:39;94525.66;;;23.99;31.40
10732;BME280;5417;42.686;23.244;2023-09-30T14:29:07;94524.84;;;24.05;31.47
10732;BME280;5417;42.686;23.244;2023-09-30T14:31:37;94527.09;;;23.95;31.91
10732;BME280;5417;42.686;23.244;2023-09-30T14:34:06;94524.84;;;23.99;32.15
10732;BME280;5417;42.686;23.244;2023-09-30T14:36:33;94528.53;;;24.04;32.38
10732;BME280;5417;42.686;23.244;2023-09-30T14:41:28;94523.59;;;24.01;32.35
10732;BME280;5417;42.686;23.244;2023-09-30T14:43:19;94525.44;;;24.01;32.58
10732;BME280;5417;42.686;23.244;2023-09-30T14:58:12;94543.41;;;23.79;32.39
10732;BME280;5417;42.686;23.244;2023-09-30T15:09:43;94549.53;;;23.73;32.09
10732;BME280;5417;42.686;23.244;2023-09-30T15:12:09;94548.50;;;23.74;32.05
10732;BME280;5417;42.686;23.244;2023-09-30T15:14:38;94555.25;;;23.70;32.52
10732;BME280;5417;42.686;23.244;2023-09-30T15:17:42;94555.25;;;23.70;32.71
10732;BME280;5417;42.686;23.244;2023-09-30T15:20:11;94548.91;;;23.77;32.60
10732;BME280;5417;42.686;23.244;2023-09-30T15:22:38;94553.00;;;23.67;32.73
10732;BME280;5417;42.686;23.244;2023-09-30T15:25:08;94549.91;;;23.63;32.92
10732;BME280;5417;42.686;23.244;2023-09-30T15:27:35;94556.47;;;23.67;32.47
10732;BME280;5417;42.686;23.244;2023-09-30T15:30:05;94551.56;;;23.71;32.43
10732;BME280;5417;42.686;23.244;2023-09-30T15:32:35;94554.00;;;23.59;32.41
10732;BME280;5417;42.686;23.244;2023-09-30T15:35:02;94547.06;;;23.65;32.02
10732;BME280;5417;42.686;23.244;2023-09-30T15:37:52;94552.75;;;23.55;32.27
10732;BME280;5417;42.686;23.244;2023-09-30T15:43:48;94547.59;;;23.47;32.98
10732;BME280;5417;42.686;23.244;2023-09-30T15:46:38;94555.16;;;23.50;33.26
10732;BME280;5417;42.686;23.244;2023-09-30T15:51:38;94561.72;;;23.47;33.43
10732;BME280;5417;42.686;23.244;2023-09-30T15:52:35;94558.22;;;23.47;33.27
10732;BME280;5417;42.686;23.244;2023-09-30T15:55:56;94560.28;;;23.51;32.97
10732;BME280;5417;42.686;23.244;2023-09-30T15:58:22;94568.63;;;23.42;33.16
10732;BME280;5417;42.686;23.244;2023-09-30T16:40:08;94597.13;;;22.57;36.35
10732;BME280;5417;42.686;23.244;2023-09-30T17:02:32;94630.69;;;22.01;39.06
10732;BME280;5417;42.686;23.244;2023-09-30T17:08:15;94623.81;;;21.85;39.48
10732;BME280;5417;42.686;23.244;2023-09-30T17:11:07;94621.69;;;21.81;39.52
10732;BME280;5417;42.686;23.244;2023-09-30T17:13:37;94621.63;;;21.74;39.65
10732;BME280;5417;42.686;23.244;2023-09-30T17:19:36;94631.25;;;21.60;40.23
10732;BME280;5417;42.686;23.244;2023-09-30T17:22:02;94632.63;;;21.56;40.59
10732;BME280;5417;42.686;23.244;2023-09-30T17:32:29;94638.34;;;21.38;40.36
10732;BME280;5417;42.686;23.244;2023-09-30T17:34:56;94640.16;;;21.38;40.83
10732;BME280;5417;42.686;23.244;2023-09-30T17:38:09;94633.75;;;21.32;41.08
10732;BME280;5417;42.686;23.244;2023-09-30T17:43:27;94642.44;;;21.26;41.87
10732;BME280;5417;42.686;23.244;2023-09-30T17:45:54;94643.63;;;21.24;41.42
10732;BME280;5417;42.686;23.244;2023-09-30T17:48:28;94633.75;;;21.18;41.57
10732;BME280;5417;42.686;23.244;2023-09-30T17:50:56;94640.50;;;21.20;41.42
10732;BME280;5417;42.686;23.244;2023-09-30T17:54:17;94641.69;;;21.18;41.92
10732;BME280;5417;42.686;23.244;2023-09-30T17:57:03;94637.13;;;21.11;42.19
10732;BME280;5417;42.686;23.244;2023-09-30T17:59:30;94639.13;;;21.09;42.25
10732;BME280;5417;42.686;23.244;2023-09-30T18:03:05;94638.69;;;21.06;42.42
10732;BME280;5417;42.686;23.244;2023-09-30T18:06:07;94636.94;;;20.98;42.94
10732;BME280;5417;42.686;23.244;2023-09-30T18:08:26;94639.50;;;20.92;42.66
10732;BME280;5417;42.686;23.244;2023-09-30T18:10:53;94644.34;;;20.88;42.90
10732;BME280;5417;42.686;23.244;2023-09-30T18:14:16;94646.97;;;20.88;42.90
10732;BME280;5417;42.686;23.244;2023-09-30T18:16:44;94639.59;;;20.84;42.86
10732;BME280;5417;42.686;23.244;2023-09-30T18:19:10;94625.78;;;20.73;43.23
10732;BME280;5417;42.686;23.244;2023-09-30T18:25:08;94634.25;;;20.69;43.24
10732;BME280;5417;42.686;23.244;2023-09-30T18:49:42;94640.84;;;20.35;44.35
10732;BME280;5417;42.686;23.244;2023-09-30T18:55:36;94645.34;;;20.27;44.18
10732;BME280;5417;42.686;23.244;2023-09-30T18:58:04;94652.13;;;20.29;44.45
10732;BME280;5417;42.686;23.244;2023-09-30T19:00:32;94651.63;;;20.26;44.60
10732;BME280;5417;42.686;23.244;2023-09-30T19:02:59;94649.53;;;20.21;44.50
10732;BME280;5417;42.686;23.244;2023-09-30T19:05:41;94644.22;;;20.21;44.73
10732;BME280;5417;42.686;23.244;2023-09-30T19:08:09;94650.69;;;20.18;44.73
10732;BME280;5417;42.686;23.244;2023-09-30T19:11:30;94647.88;;;20.20;44.84
10732;BME280;5417;42.686;23.244;2023-09-30T19:13:50;94656.34;;;20.15;45.01
10732;BME280;5417;42.686;23.244;2023-09-30T19:19:45;94642.00;;;20.10;44.98
10732;BME280;5417;42.686;23.244;2023-09-30T19:22:13;94645.47;;;20.10;44.75
10732;BME280;5417;42.686;23.244;2023-09-30T19:24:44;94639.72;;;20.07;44.78
10732;BME280;5417;42.686;23.244;2023-09-30T19:27:37;94641.53;;;20.06;44.67
10732;BME280;5417;42.686;23.244;2023-09-30T19:30:27;94641.72;;;20.05;43.79
10732;BME280;5417;42.686;23.244;2023-09-30T19:40:37;94654.41;;;20.09;44.98
10732;BME280;5417;42.686;23.244;2023-09-30T19:44:31;94652.47;;;20.03;45.62
10732;BME280;5417;42.686;23.244;2023-09-30T20:02:42;94654.47;;;19.78;45.75
10732;BME280;5417;42.686;23.244;2023-09-30T20:08:16;94660.34;;;19.89;46.57
10732;BME280;5417;42.686;23.244;2023-09-30T20:10:53;94666.31;;;19.82;46.39
10732;BME280;5417;42.686;23.244;2023-09-30T20:20:03;94664.63;;;19.59;46.90
10732;BME280;5417;42.686;23.244;2023-09-30T20:26:01;94664.81;;;19.49;46.64
10732;BME280;5417;42.686;23.244;2023-09-30T20:28:29;94661.00;;;19.51;47.21
10732;BME280;5417;42.686;23.244;2023-09-30T20:30:55;94663.63;;;19.51;47.01
10732;BME280;5417;42.686;23.244;2023-09-30T20:39:23;94676.81;;;19.60;46.12
10732;BME280;5417;42.686;23.244;2023-09-30T20:54:42;94670.16;;;19.72;45.31
10732;BME280;5417;42.686;23.244;2023-09-30T21:07:11;94667.66;;;19.78;45.35
10732;BME280;5417;42.686;23.244;2023-09-30T21:26:24;94668.34;;;19.72;46.54
10732;BME280;5417;42.686;23.244;2023-09-30T21:58:12;94670.41;;;19.54;47.16
10732;BME280;5417;42.686;23.244;2023-09-30T22:10:19;94662.72;;;19.36;48.14
10732;BME280;5417;42.686;23.244;2023-09-30T22:17:14;94666.19;;;19.37;48.29
10732;BME280;5417;42.686;23.244;2023-09-30T22:23:01;94669.34;;;19.32;48.88
10732;BME280;5417;42.686;23.244;2023-09-30T22:26:22;94661.78;;;19.29;48.51
10732;BME280;5417;42.686;23.244;2023-09-30T22:28:53;94663.41;;;19.22;48.67
10732;BME280;5417;42.686;23.244;2023-09-30T22:34:49;94662.28;;;19.16;48.94
10732;BME280;5417;42.686;23.244;2023-09-30T22:58:43;94671.88;;;19.09;49.66
10732;BME280;5417;42.686;23.244;2023-09-30T23:01:10;94672.22;;;19.06;49.08
10732;BME280;5417;42.686;23.244;2023-09-30T23:03:41;94670.56;;;19.05;49.30
10732;BME280;5417;42.686;23.244;2023-09-30T23:06:09;94672.38;;;19.05;49.36
10732;BME280;5417;42.686;23.244;2023-09-30T23:08:36;94678.50;;;19.05;50.51
10732;BME280;5417;42.686;23.244;2023-09-30T23:11:09;94674.34;;;19.11;49.19
10732;BME280;5417;42.686;23.244;2023-09-30T23:14:01;94674.19;;;19.12;49.38
10732;BME280;5417;42.686;23.244;2023-09-30T23:42:30;94665.69;;;18.86;49.74
10732;BME280;5417;42.686;23.244;2023-09-30T23:44:57;94657.94;;;18.84;50.08
10732;BME280;5417;42.686;23.244;2023-09-30T23:47:24;94660.06;;;18.89;49.50
10732;BME280;5417;42.686;23.244;2023-09-30T23:49:52;94652.16;;;18.89;49.77
10732;BME280;5417;42.686;23.244;2023-09-30T23:52:19;94647.88;;;18.88;49.52
10732;BME280;5417;42.686;23.244;2023-09-30T23:54:48;94643.59;;;18.87;49.89
